sensor_id;sensor_type;location;lat;lon;timestamp;temperature;humidity
3860;DHT22;1945;52.036;8.614;2023-03-01T00:02:14;-2.40;1.00
3860;DHT22;1945;52.036;8.614;2023-03-01T00:04:40;-2.80;1.00
3860;DHT22;1945;52.036;8.614;2023-03-01T00:07:07;-2.90;1.00
3860;DHT22;1945;52.036;8.614;2023-03-01T00:09:36;-2.50;1.00
3860;DHT22;1945;52.036;8.614;2023-03-01T00:12:03;-2.30;1.00
3860;DHT22;1945;52.036;8.614;2023-03-01T00:14:30;-2.90;1.00
3860;DHT22;1945;52.036;8.614;2023-03-01T00:16:56;-2.90;1.00
3860;DHT22;1945;52.036;8.614;2023-03-01T00:19:23;-2.50;1.00
3860;DHT22;1945;52.036;8.614;2023-03-01T00:21:50;-3.00;1.00
3860;DHT22;1945;52.036;8.614;2023-03-01T00:24:17;-2.60;1.00
3860;DHT22;1945;52.036;8.614;2023-03-01T00:26:45;-2.60;1.00
3860;DHT22;1945;52.036;8.614;2023-03-01T00:29:11;-2.30;1.00
3860;DHT22;1945;52.036;8.614;2023-03-01T00:31:38;-3.20;1.00
3860;DHT22;1945;52.036;8.614;2023-03-01T00:34:05;-2.60;1.00
3860;DHT22;1945;52.036;8.614;2023-03-01T00:36:35;-2.60;1.00
3860;DHT22;1945;52.036;8.614;2023-03-01T00:39:02;-3.20;1.00
3860;DHT22;1945;52.036;8.614;2023-03-01T00:41:30;-3.20;1.00
3860;DHT22;1945;52.036;8.614;2023-03-01T00:43:58;-3.60;1.00
3860;DHT22;1945;52.036;8.614;2023-03-01T00:46:26;-2.70;1.00
3860;DHT22;1945;52.036;8.614;2023-03-01T00:48:55;-2.70;1.00
3860;DHT22;1945;52.036;8.614;2023-03-01T00:51:24;-2.90;1.00
3860;DHT22;1945;52.036;8.614;2023-03-01T00:53:51;-2.80;1.00
3860;DHT22;1945;52.036;8.614;2023-03-01T00:56:18;-3.40;1.00
3860;DHT22;1945;52.036;8.614;2023-03-01T00:58:45;-2.80;1.00
3860;DHT22;1945;52.036;8.614;2023-03-01T01:01:15;-3.40;1.00
3860;DHT22;1945;52.036;8.614;2023-03-01T01:03:45;-2.70;1.00
3860;DHT22;1945;52.036;8.614;2023-03-01T01:06:16;-2.80;1.00
3860;DHT22;1945;52.036;8.614;2023-03-01T01:08:43;-3.00;1.00
3860;DHT22;1945;52.036;8.614;2023-03-01T01:11:10;-3.50;1.00
3860;DHT22;1945;52.036;8.614;2023-03-01T01:13:37;-3.50;1.00
3860;DHT22;1945;52.036;8.614;2023-03-01T01:16:05;-3.50;1.00
3860;DHT22;1945;52.036;8.614;2023-03-01T01:18:35;-3.50;1.00
3860;DHT22;1945;52.036;8.614;2023-03-01T01:21:06;-3.10;1.00
3860;DHT22;1945;52.036;8.614;2023-03-01T01:23:33;-3.60;1.00
3860;DHT22;1945;52.036;8.614;2023-03-01T01:26:04;-3.10;1.00
3860;DHT22;1945;52.036;8.614;2023-03-01T01:28:31;-3.70;1.00
3860;DHT22;1945;52.036;8.614;2023-03-01T01:30:58;-3.00;1.00
3860;DHT22;1945;52.036;8.614;2023-03-01T01:33:25;-3.70;1.00
3860;DHT22;1945;52.036;8.614;2023-03-01T01:35:53;-3.40;1.00
3860;DHT22;1945;52.036;8.614;2023-03-01T01:38:20;-3.20;1.00
3860;DHT22;1945;52.036;8.614;2023-03-01T01:40:48;-3.20;1.00
3860;DHT22;1945;52.036;8.614;2023-03-01T01:43:19;-3.70;1.00
3860;DHT22;1945;52.036;8.614;2023-03-01T01:45:46;-3.30;1.00
3860;DHT22;1945;52.036;8.614;2023-03-01T01:48:16;-3.80;1.00
3860;DHT22;1945;52.036;8.614;2023-03-01T01:50:43;-3.30;1.00
3860;DHT22;1945;52.036;8.614;2023-03-01T01:53:14;-3.20;1.00
3860;DHT22;1945;52.036;8.614;2023-03-01T01:55:44;-3.30;1.00
3860;DHT22;1945;52.036;8.614;2023-03-01T01:58:14;-3.90;1.00
3860;DHT22;1945;52.036;8.614;2023-03-01T02:00:42;-3.30;1.00
3860;DHT22;1945;52.036;8.614;2023-03-01T02:03:11;-3.40;1.00
3860;DHT22;1945;52.036;8.614;2023-03-01T02:05:45;-3.50;1.00
3860;DHT22;1945;52.036;8.614;2023-03-01T02:08:17;-3.90;1.00
3860;DHT22;1945;52.036;8.614;2023-03-01T02:10:45;-3.50;1.00
3860;DHT22;1945;52.036;8.614;2023-03-01T02:13:12;-3.40;1.00
3860;DHT22;1945;52.036;8.614;2023-03-01T02:15:40;-3.70;1.00
3860;DHT22;1945;52.036;8.614;2023-03-01T02:18:10;-3.40;1.00
3860;DHT22;1945;52.036;8.614;2023-03-01T02:20:44;-3.40;1.00
3860;DHT22;1945;52.036;8.614;2023-03-01T02:23:15;-3.40;1.00
3860;DHT22;1945;52.036;8.614;2023-03-01T02:25:47;-3.40;1.00
3860;DHT22;1945;52.036;8.614;2023-03-01T02:28:30;-3.40;1.00
3860;DHT22;1945;52.036;8.614;2023-03-01T02:30:57;-3.50;1.00
3860;DHT22;1945;52.036;8.614;2023-03-01T02:33:43;-4.20;1.00
3860;DHT22;1945;52.036;8.614;2023-03-01T02:36:14;-3.60;1.00
3860;DHT22;1945;52.036;8.614;2023-03-01T02:38:42;-4.10;1.00
3860;DHT22;1945;52.036;8.614;2023-03-01T02:41:09;-3.50;1.00
3860;DHT22;1945;52.036;8.614;2023-03-01T02:43:39;-3.50;1.00
3860;DHT22;1945;52.036;8.614;2023-03-01T02:46:07;-3.60;1.00
3860;DHT22;1945;52.036;8.614;2023-03-01T02:48:42;-3.80;1.00
3860;DHT22;1945;52.036;8.614;2023-03-01T02:51:18;-3.70;1.00
3860;DHT22;1945;52.036;8.614;2023-03-01T02:53:56;-3.70;1.00
3860;DHT22;1945;52.036;8.614;2023-03-01T02:56:26;-4.30;1.00
3860;DHT22;1945;52.036;8.614;2023-03-01T02:58:54;-4.40;1.00
3860;DHT22;1945;52.036;8.614;2023-03-01T03:01:26;-4.80;1.00
3860;DHT22;1945;52.036;8.614;2023-03-01T03:04:02;-4.40;1.00
3860;DHT22;1945;52.036;8.614;2023-03-01T03:06:29;-4.50;1.00
3860;DHT22;1945;52.036;8.614;2023-03-01T03:08:55;-3.80;1.00
3860;DHT22;1945;52.036;8.614;2023-03-01T03:11:22;-3.90;1.00
3860;DHT22;1945;52.036;8.614;2023-03-01T03:13:49;-4.00;1.00
3860;DHT22;1945;52.036;8.614;2023-03-01T03:16:19;-4.00;1.00
3860;DHT22;1945;52.036;8.614;2023-03-01T03:18:46;-3.80;1.00
3860;DHT22;1945;52.036;8.614;2023-03-01T03:21:13;-4.50;1.00
3860;DHT22;1945;52.036;8.614;2023-03-01T03:23:40;-4.50;1.00
3860;DHT22;1945;52.036;8.614;2023-03-01T03:26:06;-4.00;1.00
3860;DHT22;1945;52.036;8.614;2023-03-01T03:28:34;-4.00;1.00
3860;DHT22;1945;52.036;8.614;2023-03-01T03:31:01;-4.50;1.00
3860;DHT22;1945;52.036;8.614;2023-03-01T03:33:30;-4.70;1.00
3860;DHT22;1945;52.036;8.614;2023-03-01T03:35:57;-4.20;1.00
3860;DHT22;1945;52.036;8.614;2023-03-01T03:38:24;-4.70;1.00
3860;DHT22;1945;52.036;8.614;2023-03-01T03:40:54;-4.60;1.00
3860;DHT22;1945;52.036;8.614;2023-03-01T03:43:26;-4.60;1.00
3860;DHT22;1945;52.036;8.614;2023-03-01T03:45:53;-4.20;1.00
3860;DHT22;1945;52.036;8.614;2023-03-01T03:48:23;-4.20;1.00
3860;DHT22;1945;52.036;8.614;2023-03-01T03:50:53;-4.80;1.00
3860;DHT22;1945;52.036;8.614;2023-03-01T03:53:21;-4.30;1.00
3860;DHT22;1945;52.036;8.614;2023-03-01T03:55:48;-4.90;1.00
3860;DHT22;1945;52.036;8.614;2023-03-01T03:58:17;-4.80;1.00
3860;DHT22;1945;52.036;8.614;2023-03-01T04:00:46;-4.30;1.00
3860;DHT22;1945;52.036;8.614;2023-03-01T04:03:15;-4.30;1.00
3860;DHT22;1945;52.036;8.614;2023-03-01T04:05:42;-4.90;1.00
3860;DHT22;1945;52.036;8.614;2023-03-01T04:08:11;-4.60;1.00
3860;DHT22;1945;52.036;8.614;2023-03-01T04:10:39;-4.40;1.00
3860;DHT22;1945;52.036;8.614;2023-03-01T04:13:09;-4.30;1.00
3860;DHT22;1945;52.036;8.614;2023-03-01T04:15:36;-4.40;1.00
3860;DHT22;1945;52.036;8.614;2023-03-01T04:18:04;-4.90;1.00
3860;DHT22;1945;52.036;8.614;2023-03-01T04:20:33;-4.40;1.00
3860;DHT22;1945;52.036;8.614;2023-03-01T04:23:02;-4.60;1.00
3860;DHT22;1945;52.036;8.614;2023-03-01T04:25:37;-4.40;1.00
3860;DHT22;1945;52.036;8.614;2023-03-01T04:28:05;-4.90;1.00
3860;DHT22;1945;52.036;8.614;2023-03-01T04:30:32;-4.30;1.00
3860;DHT22;1945;52.036;8.614;2023-03-01T04:33:02;-4.30;1.00
3860;DHT22;1945;52.036;8.614;2023-03-01T04:35:28;-4.40;1.00
3860;DHT22;1945;52.036;8.614;2023-03-01T04:37:55;-4.30;1.00
3860;DHT22;1945;52.036;8.614;2023-03-01T04:40:22;-4.30;1.00
3860;DHT22;1945;52.036;8.614;2023-03-01T04:42:50;-4.90;1.00
3860;DHT22;1945;52.036;8.614;2023-03-01T04:45:16;-5.00;1.00
3860;DHT22;1945;52.036;8.614;2023-03-01T04:47:45;-5.00;1.00
3860;DHT22;1945;52.036;8.614;2023-03-01T04:50:14;-4.90;1.00
3860;DHT22;1945;52.036;8.614;2023-03-01T04:52:41;-4.70;1.00
3860;DHT22;1945;52.036;8.614;2023-03-01T04:55:09;-4.50;1.00
3860;DHT22;1945;52.036;8.614;2023-03-01T04:57:36;-5.00;1.00
3860;DHT22;1945;52.036;8.614;2023-03-01T05:00:06;-4.40;1.00
3860;DHT22;1945;52.036;8.614;2023-03-01T05:02:46;-5.00;1.00
3860;DHT22;1945;52.036;8.614;2023-03-01T05:05:19;-5.50;1.00
3860;DHT22;1945;52.036;8.614;2023-03-01T05:07:46;-4.80;1.00
3860;DHT22;1945;52.036;8.614;2023-03-01T05:10:13;-5.20;1.00
3860;DHT22;1945;52.036;8.614;2023-03-01T05:12:39;-4.70;1.00
3860;DHT22;1945;52.036;8.614;2023-03-01T05:15:08;-5.20;1.00
3860;DHT22;1945;52.036;8.614;2023-03-01T05:17:35;-5.10;1.00
3860;DHT22;1945;52.036;8.614;2023-03-01T05:20:02;-4.70;1.00
3860;DHT22;1945;52.036;8.614;2023-03-01T05:22:33;-5.00;1.00
3860;DHT22;1945;52.036;8.614;2023-03-01T05:25:00;-4.60;1.00
3860;DHT22;1945;52.036;8.614;2023-03-01T05:27:26;-4.90;1.00
3860;DHT22;1945;52.036;8.614;2023-03-01T05:29:54;-5.50;1.00
3860;DHT22;1945;52.036;8.614;2023-03-01T05:32:22;-4.60;1.00
3860;DHT22;1945;52.036;8.614;2023-03-01T05:34:49;-4.70;1.00
3860;DHT22;1945;52.036;8.614;2023-03-01T05:37:17;-4.70;1.00
3860;DHT22;1945;52.036;8.614;2023-03-01T05:39:44;-4.70;1.00
3860;DHT22;1945;52.036;8.614;2023-03-01T05:42:11;-5.30;1.00
3860;DHT22;1945;52.036;8.614;2023-03-01T05:44:38;-5.10;1.00
3860;DHT22;1945;52.036;8.614;2023-03-01T05:47:05;-5.30;1.00
3860;DHT22;1945;52.036;8.614;2023-03-01T05:49:33;-4.70;99.90
3860;DHT22;1945;52.036;8.614;2023-03-01T05:52:00;-5.30;99.90
3860;DHT22;1945;52.036;8.614;2023-03-01T05:54:26;-4.70;15.70
3860;DHT22;1945;52.036;8.614;2023-03-01T05:56:53;-4.60;81.30
3860;DHT22;1945;52.036;8.614;2023-03-01T05:59:20;-5.40;11.20
3860;DHT22;1945;52.036;8.614;2023-03-01T06:01:47;-4.80;1.00
3860;DHT22;1945;52.036;8.614;2023-03-01T06:04:13;-4.90;1.00
3860;DHT22;1945;52.036;8.614;2023-03-01T06:06:41;-5.40;12.80
3860;DHT22;1945;52.036;8.614;2023-03-01T06:09:08;-5.20;1.00
3860;DHT22;1945;52.036;8.614;2023-03-01T06:11:35;-4.90;1.00
3860;DHT22;1945;52.036;8.614;2023-03-01T06:14:02;-5.40;1.00
3860;DHT22;1945;52.036;8.614;2023-03-01T06:16:29;-4.90;1.00
3860;DHT22;1945;52.036;8.614;2023-03-01T06:18:56;-5.40;1.00
3860;DHT22;1945;52.036;8.614;2023-03-01T06:21:22;-5.60;1.00
3860;DHT22;1945;52.036;8.614;2023-03-01T06:23:50;-4.80;1.00
3860;DHT22;1945;52.036;8.614;2023-03-01T06:26:17;-4.80;3.30
3860;DHT22;1945;52.036;8.614;2023-03-01T06:28:44;-4.80;5.30
3860;DHT22;1945;52.036;8.614;2023-03-01T06:31:11;-4.70;1.00
3860;DHT22;1945;52.036;8.614;2023-03-01T06:33:38;-5.20;13.10
3860;DHT22;1945;52.036;8.614;2023-03-01T06:36:06;-4.60;19.00
3860;DHT22;1945;52.036;8.614;2023-03-01T06:38:33;-5.10;23.00
3860;DHT22;1945;52.036;8.614;2023-03-01T06:41:01;-5.10;1.00
3860;DHT22;1945;52.036;8.614;2023-03-01T06:43:28;-4.40;4.30
3860;DHT22;1945;52.036;8.614;2023-03-01T06:45:55;-4.30;82.00
3860;DHT22;1945;52.036;8.614;2023-03-01T06:48:23;-4.70;94.40
3860;DHT22;1945;52.036;8.614;2023-03-01T06:50:50;-4.60;1.00
3860;DHT22;1945;52.036;8.614;2023-03-01T06:53:17;-3.70;1.00
3860;DHT22;1945;52.036;8.614;2023-03-01T06:55:43;-4.10;1.00
3860;DHT22;1945;52.036;8.614;2023-03-01T06:58:11;-3.50;1.00
3860;DHT22;1945;52.036;8.614;2023-03-01T07:00:38;-3.80;1.00
3860;DHT22;1945;52.036;8.614;2023-03-01T07:03:06;-3.60;1.00
3860;DHT22;1945;52.036;8.614;2023-03-01T07:05:33;-3.40;1.00
3860;DHT22;1945;52.036;8.614;2023-03-01T07:08:00;-3.00;1.00
3860;DHT22;1945;52.036;8.614;2023-03-01T07:10:27;-2.80;1.00
3860;DHT22;1945;52.036;8.614;2023-03-01T07:12:55;-2.30;1.00
3860;DHT22;1945;52.036;8.614;2023-03-01T07:15:23;-2.70;1.00
3860;DHT22;1945;52.036;8.614;2023-03-01T07:17:50;-2.40;1.00
3860;DHT22;1945;52.036;8.614;2023-03-01T07:20:18;-2.20;99.90
3860;DHT22;1945;52.036;8.614;2023-03-01T07:22:47;-1.80;1.00
3860;DHT22;1945;52.036;8.614;2023-03-01T07:25:14;-1.20;99.90
3860;DHT22;1945;52.036;8.614;2023-03-01T07:27:41;-1.70;99.90
3860;DHT22;1945;52.036;8.614;2023-03-01T07:30:09;-1.60;99.90
3860;DHT22;1945;52.036;8.614;2023-03-01T07:32:37;-1.50;99.90
3860;DHT22;1945;52.036;8.614;2023-03-01T07:35:05;-1.30;99.90
3860;DHT22;1945;52.036;8.614;2023-03-01T07:37:32;-1.30;99.90
3860;DHT22;1945;52.036;8.614;2023-03-01T07:39:58;-1.00;99.90
3860;DHT22;1945;52.036;8.614;2023-03-01T07:42:25;-1.00;1.00
3860;DHT22;1945;52.036;8.614;2023-03-01T07:44:51;-0.80;58.70
3860;DHT22;1945;52.036;8.614;2023-03-01T07:47:18;-0.70;34.80
3860;DHT22;1945;52.036;8.614;2023-03-01T07:49:46;-0.40;65.90
3860;DHT22;1945;52.036;8.614;2023-03-01T07:52:13;0.00;1.00
3860;DHT22;1945;52.036;8.614;2023-03-01T07:54:42;-0.10;1.00
3860;DHT22;1945;52.036;8.614;2023-03-01T07:57:09;0.40;1.00
3860;DHT22;1945;52.036;8.614;2023-03-01T07:59:36;0.20;1.00
3860;DHT22;1945;52.036;8.614;2023-03-01T08:02:02;0.40;1.00
3860;DHT22;1945;52.036;8.614;2023-03-01T08:04:29;0.50;1.00
3860;DHT22;1945;52.036;8.614;2023-03-01T08:06:57;1.00;1.00
3860;DHT22;1945;52.036;8.614;2023-03-01T08:09:24;0.60;1.00
3860;DHT22;1945;52.036;8.614;2023-03-01T08:11:51;0.70;1.00
3860;DHT22;1945;52.036;8.614;2023-03-01T08:14:17;0.90;1.00
3860;DHT22;1945;52.036;8.614;2023-03-01T08:16:44;1.00;1.00
3860;DHT22;1945;52.036;8.614;2023-03-01T08:19:11;0.90;1.00
3860;DHT22;1945;52.036;8.614;2023-03-01T08:21:38;1.20;1.00
3860;DHT22;1945;52.036;8.614;2023-03-01T08:24:07;1.50;1.00
3860;DHT22;1945;52.036;8.614;2023-03-01T08:26:36;1.30;1.00
3860;DHT22;1945;52.036;8.614;2023-03-01T08:29:03;1.30;1.00
3860;DHT22;1945;52.036;8.614;2023-03-01T08:31:32;1.40;1.00
3860;DHT22;1945;52.036;8.614;2023-03-01T08:34:02;1.60;1.00
3860;DHT22;1945;52.036;8.614;2023-03-01T08:36:32;1.60;1.00
3860;DHT22;1945;52.036;8.614;2023-03-01T08:38:59;1.70;1.00
3860;DHT22;1945;52.036;8.614;2023-03-01T08:41:27;1.80;1.00
3860;DHT22;1945;52.036;8.614;2023-03-01T08:43:54;2.40;1.00
3860;DHT22;1945;52.036;8.614;2023-03-01T08:46:24;1.80;99.90
3860;DHT22;1945;52.036;8.614;2023-03-01T08:48:51;1.80;99.90
3860;DHT22;1945;52.036;8.614;2023-03-01T08:51:19;1.70;99.90
3860;DHT22;1945;52.036;8.614;2023-03-01T08:53:46;1.70;99.90
3860;DHT22;1945;52.036;8.614;2023-03-01T08:56:14;2.20;1.00
3860;DHT22;1945;52.036;8.614;2023-03-01T08:58:43;1.90;1.00
3860;DHT22;1945;52.036;8.614;2023-03-01T09:01:11;2.00;1.00
3860;DHT22;1945;52.036;8.614;2023-03-01T09:03:39;1.90;1.00
3860;DHT22;1945;52.036;8.614;2023-03-01T09:06:07;2.50;1.00
3860;DHT22;1945;52.036;8.614;2023-03-01T09:08:34;1.90;1.00
3860;DHT22;1945;52.036;8.614;2023-03-01T09:11:02;2.50;1.00
3860;DHT22;1945;52.036;8.614;2023-03-01T09:13:29;1.90;1.00
3860;DHT22;1945;52.036;8.614;2023-03-01T09:16:00;1.90;1.00
3860;DHT22;1945;52.036;8.614;2023-03-01T09:18:27;2.00;1.00
3860;DHT22;1945;52.036;8.614;2023-03-01T09:21:01;1.90;99.90
3860;DHT22;1945;52.036;8.614;2023-03-01T09:23:33;1.80;99.90
3860;DHT22;1945;52.036;8.614;2023-03-01T09:25:59;1.90;1.00
3860;DHT22;1945;52.036;8.614;2023-03-01T09:28:31;2.00;99.90
3860;DHT22;1945;52.036;8.614;2023-03-01T09:31:03;1.90;99.90
3860;DHT22;1945;52.036;8.614;2023-03-01T09:33:32;2.00;99.90
3860;DHT22;1945;52.036;8.614;2023-03-01T09:35:59;2.10;99.90
3860;DHT22;1945;52.036;8.614;2023-03-01T09:38:28;2.10;99.90
3860;DHT22;1945;52.036;8.614;2023-03-01T09:40:55;2.20;1.00
3860;DHT22;1945;52.036;8.614;2023-03-01T09:43:26;2.10;99.90
3860;DHT22;1945;52.036;8.614;2023-03-01T09:46:00;2.20;99.90
3860;DHT22;1945;52.036;8.614;2023-03-01T09:48:36;2.50;1.00
3860;DHT22;1945;52.036;8.614;2023-03-01T09:51:06;2.70;1.00
3860;DHT22;1945;52.036;8.614;2023-03-01T09:53:35;2.30;1.00
3860;DHT22;1945;52.036;8.614;2023-03-01T09:56:05;2.70;99.90
3860;DHT22;1945;52.036;8.614;2023-03-01T09:58:42;2.30;99.90
3860;DHT22;1945;52.036;8.614;2023-03-01T10:01:26;2.80;1.00
3860;DHT22;1945;52.036;8.614;2023-03-01T10:04:09;2.40;99.90
3860;DHT22;1945;52.036;8.614;2023-03-01T10:06:39;2.50;1.00
3860;DHT22;1945;52.036;8.614;2023-03-01T10:09:11;2.50;99.90
3860;DHT22;1945;52.036;8.614;2023-03-01T10:11:42;2.60;99.90
3860;DHT22;1945;52.036;8.614;2023-03-01T10:14:18;3.00;99.90
3860;DHT22;1945;52.036;8.614;2023-03-01T10:16:52;2.70;99.90
3860;DHT22;1945;52.036;8.614;2023-03-01T10:19:29;2.70;48.00
3860;DHT22;1945;52.036;8.614;2023-03-01T10:22:00;2.70;22.60
3860;DHT22;1945;52.036;8.614;2023-03-01T10:24:33;2.80;1.00
3860;DHT22;1945;52.036;8.614;2023-03-01T10:27:05;3.00;1.00
3860;DHT22;1945;52.036;8.614;2023-03-01T10:29:39;3.00;1.00
3860;DHT22;1945;52.036;8.614;2023-03-01T10:32:08;3.00;1.00
3860;DHT22;1945;52.036;8.614;2023-03-01T10:34:37;3.00;1.00
3860;DHT22;1945;52.036;8.614;2023-03-01T10:37:11;3.00;1.00
3860;DHT22;1945;52.036;8.614;2023-03-01T10:39:54;3.60;1.00
3860;DHT22;1945;52.036;8.614;2023-03-01T10:42:27;3.20;1.00
3860;DHT22;1945;52.036;8.614;2023-03-01T10:44:57;3.10;1.00
3860;DHT22;1945;52.036;8.614;2023-03-01T10:47:25;3.20;1.00
3860;DHT22;1945;52.036;8.614;2023-03-01T10:49:59;3.20;1.00
3860;DHT22;1945;52.036;8.614;2023-03-01T10:52:29;3.20;1.00
3860;DHT22;1945;52.036;8.614;2023-03-01T10:54:58;3.20;1.00
3860;DHT22;1945;52.036;8.614;2023-03-01T10:57:31;3.30;1.00
3860;DHT22;1945;52.036;8.614;2023-03-01T11:00:20;3.30;1.00
3860;DHT22;1945;52.036;8.614;2023-03-01T11:02:49;3.40;1.00
3860;DHT22;1945;52.036;8.614;2023-03-01T11:05:20;3.40;1.00
3860;DHT22;1945;52.036;8.614;2023-03-01T11:07:50;3.40;1.00
3860;DHT22;1945;52.036;8.614;2023-03-01T11:10:19;3.80;1.00
3860;DHT22;1945;52.036;8.614;2023-03-01T11:12:46;3.60;1.00
3860;DHT22;1945;52.036;8.614;2023-03-01T11:15:22;3.50;1.00
3860;DHT22;1945;52.036;8.614;2023-03-01T11:17:50;3.50;1.00
3860;DHT22;1945;52.036;8.614;2023-03-01T11:20:25;3.90;1.00
3860;DHT22;1945;52.036;8.614;2023-03-01T11:22:54;3.60;1.00
3860;DHT22;1945;52.036;8.614;2023-03-01T11:25:25;3.70;1.00
3860;DHT22;1945;52.036;8.614;2023-03-01T11:27:53;3.70;1.00
3860;DHT22;1945;52.036;8.614;2023-03-01T11:30:23;3.80;1.00
3860;DHT22;1945;52.036;8.614;2023-03-01T11:33:01;3.90;1.00
3860;DHT22;1945;52.036;8.614;2023-03-01T11:35:32;3.90;1.00
3860;DHT22;1945;52.036;8.614;2023-03-01T11:38:12;4.00;1.00
3860;DHT22;1945;52.036;8.614;2023-03-01T11:40:44;4.00;1.00
3860;DHT22;1945;52.036;8.614;2023-03-01T11:43:17;4.10;1.00
3860;DHT22;1945;52.036;8.614;2023-03-01T11:46:02;4.10;1.00
3860;DHT22;1945;52.036;8.614;2023-03-01T11:48:47;4.10;1.00
3860;DHT22;1945;52.036;8.614;2023-03-01T11:51:24;4.10;1.00
3860;DHT22;1945;52.036;8.614;2023-03-01T11:54:02;4.20;1.00
3860;DHT22;1945;52.036;8.614;2023-03-01T11:56:34;4.30;1.00
3860;DHT22;1945;52.036;8.614;2023-03-01T11:59:30;4.80;1.00
3860;DHT22;1945;52.036;8.614;2023-03-01T12:02:27;4.30;1.00
3860;DHT22;1945;52.036;8.614;2023-03-01T12:05:18;4.30;1.00
3860;DHT22;1945;52.036;8.614;2023-03-01T12:07:54;4.40;1.00
3860;DHT22;1945;52.036;8.614;2023-03-01T12:10:27;4.90;1.00
3860;DHT22;1945;52.036;8.614;2023-03-01T12:16:07;4.50;1.00
3860;DHT22;1945;52.036;8.614;2023-03-01T12:18:55;4.50;1.00
3860;DHT22;1945;52.036;8.614;2023-03-01T12:21:41;4.40;1.00
3860;DHT22;1945;52.036;8.614;2023-03-01T12:24:30;4.40;1.00
3860;DHT22;1945;52.036;8.614;2023-03-01T12:27:20;4.50;1.00
3860;DHT22;1945;52.036;8.614;2023-03-01T12:29:58;4.50;1.00
3860;DHT22;1945;52.036;8.614;2023-03-01T12:32:36;4.50;1.00
3860;DHT22;1945;52.036;8.614;2023-03-01T12:35:23;4.60;1.00
3860;DHT22;1945;52.036;8.614;2023-03-01T12:38:06;4.70;1.00
3860;DHT22;1945;52.036;8.614;2023-03-01T12:43:51;4.70;1.00
3860;DHT22;1945;52.036;8.614;2023-03-01T12:46:32;4.80;1.00
3860;DHT22;1945;52.036;8.614;2023-03-01T12:49:08;4.90;1.00
3860;DHT22;1945;52.036;8.614;2023-03-01T12:51:38;4.90;1.00
3860;DHT22;1945;52.036;8.614;2023-03-01T12:54:13;4.90;1.00
3860;DHT22;1945;52.036;8.614;2023-03-01T12:56:41;5.40;1.00
3860;DHT22;1945;52.036;8.614;2023-03-01T12:59:17;4.90;1.00
3860;DHT22;1945;52.036;8.614;2023-03-01T13:01:51;5.00;1.00
3860;DHT22;1945;52.036;8.614;2023-03-01T13:04:35;5.10;1.00
3860;DHT22;1945;52.036;8.614;2023-03-01T13:07:14;5.10;1.00
3860;DHT22;1945;52.036;8.614;2023-03-01T13:09:50;5.10;1.00
3860;DHT22;1945;52.036;8.614;2023-03-01T13:12:47;5.20;1.00
3860;DHT22;1945;52.036;8.614;2023-03-01T13:15:29;5.10;1.00
3860;DHT22;1945;52.036;8.614;2023-03-01T13:17:57;5.20;1.00
3860;DHT22;1945;52.036;8.614;2023-03-01T13:20:29;5.30;1.00
3860;DHT22;1945;52.036;8.614;2023-03-01T13:23:21;5.20;1.00
3860;DHT22;1945;52.036;8.614;2023-03-01T13:26:11;5.30;1.00
3860;DHT22;1945;52.036;8.614;2023-03-01T13:28:42;5.30;1.00
3860;DHT22;1945;52.036;8.614;2023-03-01T13:35:00;5.30;1.00
3860;DHT22;1945;52.036;8.614;2023-03-01T13:37:36;5.40;1.00
3860;DHT22;1945;52.036;8.614;2023-03-01T13:43:30;5.50;1.00
3860;DHT22;1945;52.036;8.614;2023-03-01T13:45:57;5.50;1.00
3860;DHT22;1945;52.036;8.614;2023-03-01T13:48:27;5.90;1.00
3860;DHT22;1945;52.036;8.614;2023-03-01T13:50:59;5.50;1.00
3860;DHT22;1945;52.036;8.614;2023-03-01T13:53:30;5.60;1.00
3860;DHT22;1945;52.036;8.614;2023-03-01T13:56:00;5.90;1.00
3860;DHT22;1945;52.036;8.614;2023-03-01T13:58:29;5.50;1.00
3860;DHT22;1945;52.036;8.614;2023-03-01T14:00:59;5.50;1.00
3860;DHT22;1945;52.036;8.614;2023-03-01T14:03:26;5.50;1.00
3860;DHT22;1945;52.036;8.614;2023-03-01T14:06:01;5.50;1.00
3860;DHT22;1945;52.036;8.614;2023-03-01T14:08:30;5.60;1.00
3860;DHT22;1945;52.036;8.614;2023-03-01T14:11:13;5.60;1.00
3860;DHT22;1945;52.036;8.614;2023-03-01T14:14:07;5.70;1.00
3860;DHT22;1945;52.036;8.614;2023-03-01T14:16:42;5.60;1.00
3860;DHT22;1945;52.036;8.614;2023-03-01T14:19:16;5.40;1.00
3860;DHT22;1945;52.036;8.614;2023-03-01T14:21:46;5.90;1.00
3860;DHT22;1945;52.036;8.614;2023-03-01T14:24:18;5.60;1.00
3860;DHT22;1945;52.036;8.614;2023-03-01T14:26:46;5.70;1.00
3860;DHT22;1945;52.036;8.614;2023-03-01T14:29:26;5.60;1.00
3860;DHT22;1945;52.036;8.614;2023-03-01T14:31:53;5.60;1.00
3860;DHT22;1945;52.036;8.614;2023-03-01T14:34:21;5.60;1.00
3860;DHT22;1945;52.036;8.614;2023-03-01T14:36:50;5.70;1.00
3860;DHT22;1945;52.036;8.614;2023-03-01T14:39:19;5.70;1.00
3860;DHT22;1945;52.036;8.614;2023-03-01T14:41:47;5.70;1.00
3860;DHT22;1945;52.036;8.614;2023-03-01T14:44:16;5.70;1.00
3860;DHT22;1945;52.036;8.614;2023-03-01T14:46:52;5.70;1.00
3860;DHT22;1945;52.036;8.614;2023-03-01T14:49:21;5.70;1.00
3860;DHT22;1945;52.036;8.614;2023-03-01T14:51:55;5.70;1.00
3860;DHT22;1945;52.036;8.614;2023-03-01T14:54:25;5.60;1.00
3860;DHT22;1945;52.036;8.614;2023-03-01T14:56:53;5.70;1.00
3860;DHT22;1945;52.036;8.614;2023-03-01T14:59:21;6.00;1.00
3860;DHT22;1945;52.036;8.614;2023-03-01T15:01:49;5.70;1.00
3860;DHT22;1945;52.036;8.614;2023-03-01T15:04:16;5.70;1.00
3860;DHT22;1945;52.036;8.614;2023-03-01T15:06:43;5.70;1.00
3860;DHT22;1945;52.036;8.614;2023-03-01T15:09:14;5.70;1.00
3860;DHT22;1945;52.036;8.614;2023-03-01T15:11:42;5.70;1.00
3860;DHT22;1945;52.036;8.614;2023-03-01T15:14:27;5.70;1.00
3860;DHT22;1945;52.036;8.614;2023-03-01T15:16:54;6.10;1.00
3860;DHT22;1945;52.036;8.614;2023-03-01T15:19:23;5.70;1.00
3860;DHT22;1945;52.036;8.614;2023-03-01T15:21:52;5.70;1.00
3860;DHT22;1945;52.036;8.614;2023-03-01T15:24:24;5.60;1.00
3860;DHT22;1945;52.036;8.614;2023-03-01T15:26:53;5.60;1.00
3860;DHT22;1945;52.036;8.614;2023-03-01T15:29:24;5.60;1.00
3860;DHT22;1945;52.036;8.614;2023-03-01T15:31:57;5.60;1.00
3860;DHT22;1945;52.036;8.614;2023-03-01T15:34:25;6.10;1.00
3860;DHT22;1945;52.036;8.614;2023-03-01T15:36:52;5.60;1.00
3860;DHT22;1945;52.036;8.614;2023-03-01T15:39:32;5.60;1.00
3860;DHT22;1945;52.036;8.614;2023-03-01T15:42:03;5.30;1.00
3860;DHT22;1945;52.036;8.614;2023-03-01T15:44:32;5.50;1.00
3860;DHT22;1945;52.036;8.614;2023-03-01T15:46:59;5.50;1.00
3860;DHT22;1945;52.036;8.614;2023-03-01T15:49:35;5.50;1.00
3860;DHT22;1945;52.036;8.614;2023-03-01T15:52:03;5.50;1.00
3860;DHT22;1945;52.036;8.614;2023-03-01T15:54:31;5.50;1.00
3860;DHT22;1945;52.036;8.614;2023-03-01T15:56:58;5.40;1.00
3860;DHT22;1945;52.036;8.614;2023-03-01T15:59:24;5.40;1.00
3860;DHT22;1945;52.036;8.614;2023-03-01T16:01:51;5.40;1.00
3860;DHT22;1945;52.036;8.614;2023-03-01T16:04:19;5.30;1.00
3860;DHT22;1945;52.036;8.614;2023-03-01T16:06:50;5.70;1.00
3860;DHT22;1945;52.036;8.614;2023-03-01T16:09:21;5.30;1.00
3860;DHT22;1945;52.036;8.614;2023-03-01T16:11:52;5.20;1.00
3860;DHT22;1945;52.036;8.614;2023-03-01T16:14:19;5.30;1.00
3860;DHT22;1945;52.036;8.614;2023-03-01T16:16:46;5.20;1.00
3860;DHT22;1945;52.036;8.614;2023-03-01T16:19:13;5.10;1.00
3860;DHT22;1945;52.036;8.614;2023-03-01T16:21:41;5.20;1.00
3860;DHT22;1945;52.036;8.614;2023-03-01T16:24:09;5.10;1.00
3860;DHT22;1945;52.036;8.614;2023-03-01T16:26:37;5.10;1.00
3860;DHT22;1945;52.036;8.614;2023-03-01T16:29:05;5.00;1.00
3860;DHT22;1945;52.036;8.614;2023-03-01T16:31:32;5.00;1.00
3860;DHT22;1945;52.036;8.614;2023-03-01T16:33:59;4.90;1.00
3860;DHT22;1945;52.036;8.614;2023-03-01T16:36:27;4.90;1.00
3860;DHT22;1945;52.036;8.614;2023-03-01T16:38:54;4.90;1.00
3860;DHT22;1945;52.036;8.614;2023-03-01T16:41:22;4.90;1.00
3860;DHT22;1945;52.036;8.614;2023-03-01T16:43:49;4.70;1.00
3860;DHT22;1945;52.036;8.614;2023-03-01T16:46:20;4.70;1.00
3860;DHT22;1945;52.036;8.614;2023-03-01T16:48:47;4.70;1.00
3860;DHT22;1945;52.036;8.614;2023-03-01T16:51:14;4.70;1.00
3860;DHT22;1945;52.036;8.614;2023-03-01T16:53:41;4.60;1.00
3860;DHT22;1945;52.036;8.614;2023-03-01T16:56:10;4.50;1.00
3860;DHT22;1945;52.036;8.614;2023-03-01T16:58:37;4.40;1.00